Time;durP1;ratioP1;P1;durP2;ratioP2;P2;SDS_P1;SDS_P2;PMS_P1;PMS_P2;Temp;Humidity;BMP_temperature;BMP_pressure;BME280_temperature;BME280_humidity;BME280_pressure;Samples;Min_cycle;Max_cycle;Signal;HPM_P1;HPM_P2
2023/08/02 00:00:57;;;;;;;21.05;3.72;;;;;;;;;;4983038;28;20488;-55
2023/08/02 00:03:24;;;;;;;23.55;4.03;;;;;;;;;;4988799;28;20058;-53
2023/08/02 00:05:58;;;;;;;23.40;4.03;;;;;;;;;;4993071;28;20088;-55
2023/08/02 00:08:25;;;;;;;19.73;4.25;;;;;;;;;;4981171;28;20030;-53
2023/08/02 00:10:53;;;;;;;27.48;4.10;;;;;;;;;;4985094;28;20117;-50
2023/08/02 00:13:20;;;;;;;18.13;3.80;;;;;;;;;;4975901;28;20030;-50
2023/08/02 00:15:47;;;;;;;21.48;4.43;;;;;;;;;;4976971;28;20034;-55
2023/08/02 00:18:15;;;;;;;19.80;3.90;;;;;;;;;;4988485;28;20050;-51
2023/08/02 00:20:42;;;;;;;23.55;4.00;;;;;;;;;;4987087;28;20029;-53
2023/08/02 00:23:09;;;;;;;22.05;4.10;;;;;;;;;;4990290;28;20046;-53
2023/08/02 00:25:36;;;;;;;31.08;5.05;;;;;;;;;;4990594;28;20110;-54
2023/08/02 00:28:03;;;;;;;29.13;4.85;;;;;;;;;;4989942;28;20041;-50
2023/08/02 00:30:33;;;;;;;24.85;4.68;;;;;;;;;;4991143;28;20117;-50
2023/08/02 00:33:00;;;;;;;22.08;4.50;;;;;;;;;;4991407;28;20050;-52
2023/08/02 00:35:27;;;;;;;29.88;5.03;;;;;;;;;;4991659;28;20109;-52
2023/08/02 00:37:54;;;;;;;25.38;4.82;;;;;;;;;;4992557;28;20048;-54
2023/08/02 00:40:25;;;;;;;23.33;4.55;;;;;;;;;;4979354;28;20053;-52
2023/08/02 00:42:52;;;;;;;24.30;4.93;;;;;;;;;;4992151;28;20030;-52
2023/08/02 00:45:19;;;;;;;27.48;4.93;;;;;;;;;;4992250;28;20035;-56
2023/08/02 00:47:46;;;;;;;31.02;5.57;;;;;;;;;;4992923;28;20042;-55
2023/08/02 00:50:13;;;;;;;27.75;4.80;;;;;;;;;;4992714;28;20089;-51
2023/08/02 00:52:40;;;;;;;31.05;5.68;;;;;;;;;;4991425;28;20361;-51
2023/08/02 00:55:07;;;;;;;22.88;4.70;;;;;;;;;;4992573;28;20042;-52
2023/08/02 00:57:34;;;;;;;19.30;4.28;;;;;;;;;;4992715;28;20030;-56
2023/08/02 01:00:02;;;;;;;24.88;5.25;;;;;;;;;;4992611;28;20113;-51
2023/08/02 01:02:29;;;;;;;23.23;4.65;;;;;;;;;;4992596;28;20034;-51
2023/08/02 01:04:56;;;;;;;20.88;4.30;;;;;;;;;;4992230;28;20392;-53
2023/08/02 01:07:38;;;;;;;22.67;4.70;;;;;;;;;;4992503;28;20045;-52
2023/08/02 01:10:08;;;;;;;19.95;4.55;;;;;;;;;;4984099;28;20065;-51
2023/08/02 01:12:36;;;;;;;22.38;4.75;;;;;;;;;;4989646;28;20404;-51
2023/08/02 01:15:04;;;;;;;21.48;4.55;;;;;;;;;;4992326;28;20041;-54
2023/08/02 01:17:31;;;;;;;17.15;3.00;;;;;;;;;;4992259;28;20125;-54
2023/08/02 01:20:06;;;;;;;18.90;4.38;;;;;;;;;;4977470;28;20093;-51
2023/08/02 01:22:33;;;;;;;18.05;4.07;;;;;;;;;;4991897;28;20046;-55
2023/08/02 01:25:00;;;;;;;21.45;4.47;;;;;;;;;;4977248;28;20037;-52
2023/08/02 01:27:32;;;;;;;21.33;4.80;;;;;;;;;;4955227;28;20512;-49
2023/08/02 01:30:01;;;;;;;31.38;5.07;;;;;;;;;;4971906;28;20033;-52
2023/08/02 01:32:28;;;;;;;23.17;4.30;;;;;;;;;;4972640;28;20051;-49
2023/08/02 01:34:55;;;;;;;18.50;3.90;;;;;;;;;;4972450;28;20078;-52
2023/08/02 01:37:22;;;;;;;18.00;4.07;;;;;;;;;;4972703;28;20022;-52
2023/08/02 01:39:49;;;;;;;18.45;3.72;;;;;;;;;;4978031;28;20023;-50
2023/08/02 01:42:17;;;;;;;17.90;3.70;;;;;;;;;;4973759;28;20099;-55
2023/08/02 01:44:44;;;;;;;16.95;4.18;;;;;;;;;;4985103;28;20726;-54
2023/08/02 01:47:11;;;;;;;20.20;4.22;;;;;;;;;;4972308;28;20125;-53
2023/08/02 01:49:38;;;;;;;19.42;3.83;;;;;;;;;;4972491;28;20031;-53
2023/08/02 01:52:05;;;;;;;17.30;3.75;;;;;;;;;;4977642;28;20026;-51
2023/08/02 01:54:32;;;;;;;16.85;3.70;;;;;;;;;;4972097;28;20027;-52
2023/08/02 01:56:59;;;;;;;19.05;4.03;;;;;;;;;;4982734;28;20033;-52
2023/08/02 01:59:26;;;;;;;20.40;3.83;;;;;;;;;;4989177;28;20388;-52
2023/08/02 02:01:53;;;;;;;21.23;3.83;;;;;;;;;;4987304;28;20034;-52
2023/08/02 02:04:20;;;;;;;20.88;3.35;;;;;;;;;;4981378;28;20378;-50
2023/08/02 02:06:49;;;;;;;20.58;4.65;;;;;;;;;;4963754;28;20140;-52
2023/08/02 02:09:16;;;;;;;17.73;3.78;;;;;;;;;;4990878;28;20045;-52
2023/08/02 02:11:44;;;;;;;20.30;3.92;;;;;;;;;;4991494;28;20026;-55
2023/08/02 02:14:11;;;;;;;16.10;4.20;;;;;;;;;;4988728;28;20042;-54
2023/08/02 02:16:38;;;;;;;15.68;3.55;;;;;;;;;;4991256;28;20564;-54
2023/08/02 02:19:05;;;;;;;19.55;4.05;;;;;;;;;;4991117;28;20035;-52
2023/08/02 02:21:32;;;;;;;16.00;4.15;;;;;;;;;;4988691;28;20027;-53
2023/08/02 02:23:59;;;;;;;21.25;3.85;;;;;;;;;;4991380;28;20026;-55
2023/08/02 02:26:26;;;;;;;13.98;3.20;;;;;;;;;;4991054;28;20038;-52
2023/08/02 02:28:53;;;;;;;13.35;3.50;;;;;;;;;;4988979;28;20034;-53
2023/08/02 02:31:20;;;;;;;13.95;3.50;;;;;;;;;;4991218;28;20022;-55
2023/08/02 02:33:47;;;;;;;18.38;4.10;;;;;;;;;;4991023;28;20078;-56
2023/08/02 02:36:14;;;;;;;18.83;3.83;;;;;;;;;;4991103;28;20026;-55
2023/08/02 02:38:41;;;;;;;14.02;3.22;;;;;;;;;;4991139;28;20492;-56
2023/08/02 02:41:08;;;;;;;15.38;3.83;;;;;;;;;;4993225;28;20034;-54
2023/08/02 02:43:35;;;;;;;14.55;4.10;;;;;;;;;;4994848;28;20076;-55
2023/08/02 02:46:02;;;;;;;13.73;3.45;;;;;;;;;;4994707;28;20057;-53
2023/08/02 02:48:29;;;;;;;17.83;3.70;;;;;;;;;;4994903;28;20022;-53
2023/08/02 02:50:56;;;;;;;15.95;3.40;;;;;;;;;;4977804;28;20456;-52
2023/08/02 02:53:23;;;;;;;16.63;3.78;;;;;;;;;;4995246;28;20088;-54
2023/08/02 02:55:56;;;;;;;14.05;3.45;;;;;;;;;;4995150;28;20096;-53
2023/08/02 02:58:23;;;;;;;19.70;4.32;;;;;;;;;;4995038;28;20034;-52
2023/08/02 03:00:50;;;;;;;15.13;3.70;;;;;;;;;;4995035;28;20723;-55
2023/08/02 03:03:17;;;;;;;13.50;3.30;;;;;;;;;;4995082;28;20027;-52
2023/08/02 03:05:44;;;;;;;11.77;3.15;;;;;;;;;;4995049;28;20026;-51
2023/08/02 03:08:15;;;;;;;16.30;3.90;;;;;;;;;;4994877;28;20050;-53
2023/08/02 03:10:42;;;;;;;10.90;3.22;;;;;;;;;;4995093;28;20022;-51
2023/08/02 03:13:09;;;;;;;12.35;3.40;;;;;;;;;;4995039;28;20026;-55
2023/08/02 03:15:36;;;;;;;12.05;3.17;;;;;;;;;;4994843;28;20117;-56
2023/08/02 03:18:03;;;;;;;13.95;3.75;;;;;;;;;;4994937;28;20042;-54
2023/08/02 03:20:30;;;;;;;12.00;3.63;;;;;;;;;;4994913;28;20026;-53
2023/08/02 03:22:57;;;;;;;14.85;3.00;;;;;;;;;;4994762;28;20038;-52
2023/08/02 03:25:24;;;;;;;14.40;3.17;;;;;;;;;;4994663;28;20105;-52
2023/08/02 03:27:51;;;;;;;12.50;3.60;;;;;;;;;;4994678;28;20046;-52
2023/08/02 03:30:18;;;;;;;21.50;3.90;;;;;;;;;;4994721;28;20034;-53
2023/08/02 03:32:45;;;;;;;11.93;3.50;;;;;;;;;;4994557;28;20058;-54
2023/08/02 03:35:12;;;;;;;11.57;3.38;;;;;;;;;;4976938;28;20034;-55
2023/08/02 03:37:39;;;;;;;10.75;3.00;;;;;;;;;;4994598;28;20053;-52
2023/08/02 03:40:06;;;;;;;12.80;3.85;;;;;;;;;;4994546;28;20034;-52
2023/08/02 03:42:33;;;;;;;15.98;4.20;;;;;;;;;;4994456;28;20034;-52
2023/08/02 03:45:00;;;;;;;9.65;2.83;;;;;;;;;;4994445;28;20030;-52
2023/08/02 03:47:27;;;;;;;11.98;2.88;;;;;;;;;;4994291;28;20477;-52
2023/08/02 03:49:54;;;;;;;17.00;3.50;;;;;;;;;;4994279;28;20034;-55
2023/08/02 03:52:21;;;;;;;13.85;3.50;;;;;;;;;;4993448;28;20030;-52
2023/08/02 03:54:48;;;;;;;14.15;3.47;;;;;;;;;;4994185;28;20036;-51
2023/08/02 03:57:15;;;;;;;9.77;3.10;;;;;;;;;;4994196;28;20034;-51
2023/08/02 03:59:42;;;;;;;10.07;3.20;;;;;;;;;;4994184;28;20026;-51
2023/08/02 04:02:09;;;;;;;12.10;3.15;;;;;;;;;;4994085;28;20026;-52
2023/08/02 04:04:36;;;;;;;9.38;3.30;;;;;;;;;;4993938;28;20101;-53
2023/08/02 04:07:03;;;;;;;12.55;3.58;;;;;;;;;;4993823;28;20053;-53
2023/08/02 04:09:30;;;;;;;10.57;2.90;;;;;;;;;;4993889;28;20126;-54
2023/08/02 04:11:57;;;;;;;12.10;3.25;;;;;;;;;;4993941;28;20532;-51
2023/08/02 04:14:24;;;;;;;9.15;3.05;;;;;;;;;;4993807;28;20109;-52
2023/08/02 04:16:51;;;;;;;13.60;3.60;;;;;;;;;;4993825;28;20038;-52
2023/08/02 04:19:18;;;;;;;12.52;3.40;;;;;;;;;;4993771;28;20027;-54
2023/08/02 04:21:45;;;;;;;9.57;3.20;;;;;;;;;;4993759;28;20076;-54
2023/08/02 04:24:12;;;;;;;11.32;2.85;;;;;;;;;;4976031;28;20065;-51
2023/08/02 04:26:39;;;;;;;10.98;2.63;;;;;;;;;;4993547;28;20453;-52
2023/08/02 04:29:06;;;;;;;12.48;2.72;;;;;;;;;;4993646;28;20038;-54
2023/08/02 04:31:33;;;;;;;11.48;2.60;;;;;;;;;;4993531;28;20038;-52
2023/08/02 04:34:00;;;;;;;9.27;2.60;;;;;;;;;;4993373;28;20054;-53
2023/08/02 04:36:27;;;;;;;7.32;3.13;;;;;;;;;;4993512;28;20037;-51
2023/08/02 04:38:54;;;;;;;9.60;2.17;;;;;;;;;;4993374;28;20026;-55
2023/08/02 04:41:21;;;;;;;9.38;2.97;;;;;;;;;;4993418;28;20457;-51
2023/08/02 04:43:48;;;;;;;6.85;2.35;;;;;;;;;;4993388;28;20102;-51
2023/08/02 04:46:15;;;;;;;9.25;2.67;;;;;;;;;;4993116;28;20783;-52
2023/08/02 04:48:42;;;;;;;11.60;2.97;;;;;;;;;;4993221;28;20118;-55
2023/08/02 04:51:09;;;;;;;9.07;2.85;;;;;;;;;;4993247;28;20056;-51
2023/08/02 04:53:36;;;;;;;17.23;2.80;;;;;;;;;;4993244;28;20630;-54
2023/08/02 04:56:03;;;;;;;7.05;2.30;;;;;;;;;;4992881;28;20692;-55
2023/08/02 04:58:30;;;;;;;11.40;2.67;;;;;;;;;;4993152;28;20068;-56
2023/08/02 05:01:01;;;;;;;8.65;3.22;;;;;;;;;;4993054;28;20443;-55
2023/08/02 05:03:29;;;;;;;8.30;2.58;;;;;;;;;;4993048;28;20034;-51
2023/08/02 05:06:06;;;;;;;11.35;2.42;;;;;;;;;;4992758;28;20026;-52
2023/08/02 05:08:33;;;;;;;9.02;2.55;;;;;;;;;;4992887;28;20080;-52
2023/08/02 05:11:00;;;;;;;9.05;2.67;;;;;;;;;;4992884;28;20504;-52
2023/08/02 05:13:28;;;;;;;7.43;2.40;;;;;;;;;;4992878;28;20033;-51
2023/08/02 05:15:56;;;;;;;9.43;2.60;;;;;;;;;;4992637;28;20034;-52
2023/08/02 05:18:23;;;;;;;7.95;2.78;;;;;;;;;;4992718;28;20568;-51
2023/08/02 05:20:50;;;;;;;7.13;2.40;;;;;;;;;;4992744;28;20109;-52
2023/08/02 05:23:17;;;;;;;6.65;2.25;;;;;;;;;;4992718;28;20037;-54
2023/08/02 05:25:44;;;;;;;7.32;2.15;;;;;;;;;;4992487;28;20049;-52
2023/08/02 05:28:11;;;;;;;8.13;2.30;;;;;;;;;;4992565;28;20511;-55
2023/08/02 05:30:38;;;;;;;6.13;2.15;;;;;;;;;;4992490;28;20026;-52
2023/08/02 05:33:08;;;;;;;6.55;2.58;;;;;;;;;;4992289;28;20140;-53
2023/08/02 05:35:35;;;;;;;8.60;2.38;;;;;;;;;;4992372;28;20034;-54
2023/08/02 05:38:02;;;;;;;6.55;2.20;;;;;;;;;;4992451;28;20042;-53
2023/08/02 05:40:29;;;;;;;11.27;2.58;;;;;;;;;;4992453;28;20034;-55
2023/08/02 05:42:58;;;;;;;5.78;2.20;;;;;;;;;;4992340;28;20068;-53
2023/08/02 05:45:25;;;;;;;6.32;2.17;;;;;;;;;;4992333;28;20113;-55
2023/08/02 05:47:52;;;;;;;8.75;2.20;;;;;;;;;;4992143;28;20043;-51
2023/08/02 05:50:19;;;;;;;6.32;2.05;;;;;;;;;;4992324;28;20029;-51
2023/08/02 05:52:46;;;;;;;9.20;2.60;;;;;;;;;;4992306;28;20030;-55
2023/08/02 05:55:14;;;;;;;8.10;2.10;;;;;;;;;;4992181;28;20041;-52
2023/08/02 05:57:41;;;;;;;7.00;1.83;;;;;;;;;;4992152;28;20518;-55
2023/08/02 06:00:09;;;;;;;7.97;2.30;;;;;;;;;;4992265;28;20033;-52
2023/08/02 06:02:38;;;;;;;7.88;2.40;;;;;;;;;;4991154;28;20037;-51
2023/08/02 06:05:05;;;;;;;4.82;2.00;;;;;;;;;;4991992;28;20037;-55
2023/08/02 06:07:32;;;;;;;6.32;1.90;;;;;;;;;;4992101;28;20448;-56
2023/08/02 06:09:59;;;;;;;7.20;2.60;;;;;;;;;;4992163;28;20029;-56
2023/08/02 06:12:26;;;;;;;7.10;2.30;;;;;;;;;;4992181;28;20030;-55
2023/08/02 06:14:53;;;;;;;5.55;2.10;;;;;;;;;;4992124;28;20121;-52
2023/08/02 06:17:20;;;;;;;5.65;2.10;;;;;;;;;;4996029;28;20492;-52
2023/08/02 06:19:47;;;;;;;5.43;2.03;;;;;;;;;;4996058;28;20023;-55
2023/08/02 06:22:15;;;;;;;7.97;2.28;;;;;;;;;;4995973;28;20033;-53
2023/08/02 06:24:43;;;;;;;3.83;1.75;;;;;;;;;;4995701;28;20038;-53
2023/08/02 06:27:11;;;;;;;5.32;1.85;;;;;;;;;;4995713;28;20480;-55
2023/08/02 06:29:38;;;;;;;6.55;1.60;;;;;;;;;;4995825;28;20026;-54
2023/08/02 06:32:05;;;;;;;6.10;1.95;;;;;;;;;;4995557;28;20104;-55
2023/08/02 06:34:32;;;;;;;5.38;2.20;;;;;;;;;;4995699;28;20026;-55
2023/08/02 06:36:59;;;;;;;7.63;2.22;;;;;;;;;;4995738;28;20042;-54
2023/08/02 06:39:26;;;;;;;6.38;1.95;;;;;;;;;;4995692;28;20037;-55
2023/08/02 06:41:53;;;;;;;5.43;1.75;;;;;;;;;;4995590;28;20050;-52
2023/08/02 06:44:20;;;;;;;5.20;1.88;;;;;;;;;;4995367;28;20037;-56
2023/08/02 06:46:47;;;;;;;5.75;2.28;;;;;;;;;;4995412;28;20030;-54
2023/08/02 06:49:13;;;;;;;8.38;1.95;;;;;;;;;;4995518;28;20025;-53
2023/08/02 06:51:40;;;;;;;6.38;2.08;;;;;;;;;;4995344;28;20512;-53
2023/08/02 06:54:07;;;;;;;3.72;1.77;;;;;;;;;;4995358;28;20105;-54
2023/08/02 06:56:34;;;;;;;4.88;1.80;;;;;;;;;;4977799;28;20030;-52
2023/08/02 06:59:01;;;;;;;8.88;2.03;;;;;;;;;;4995417;28;20384;-54
2023/08/02 07:01:28;;;;;;;4.30;1.90;;;;;;;;;;4995302;28;20105;-53
2023/08/02 07:03:55;;;;;;;3.40;1.60;;;;;;;;;;4995017;28;20109;-55
2023/08/02 07:06:22;;;;;;;4.95;1.95;;;;;;;;;;4995124;28;20039;-54
2023/08/02 07:08:49;;;;;;;4.13;1.25;;;;;;;;;;4995159;28;20396;-53
2023/08/02 07:11:17;;;;;;;6.18;1.88;;;;;;;;;;4977540;28;20110;-55
2023/08/02 07:13:45;;;;;;;5.28;1.80;;;;;;;;;;4994978;28;20045;-56
2023/08/02 07:16:12;;;;;;;4.35;2.03;;;;;;;;;;4977451;28;20061;-54
2023/08/02 07:18:39;;;;;;;5.45;1.92;;;;;;;;;;4995012;28;20568;-54
2023/08/02 07:21:07;;;;;;;4.20;1.48;;;;;;;;;;4994960;28;20031;-52
2023/08/02 07:23:34;;;;;;;5.22;1.65;;;;;;;;;;4994883;28;20018;-53
2023/08/02 07:26:02;;;;;;;4.20;1.70;;;;;;;;;;4994338;28;20041;-55
2023/08/02 07:28:29;;;;;;;5.32;1.95;;;;;;;;;;4993942;28;20030;-55
2023/08/02 07:31:06;;;;;;;4.57;1.75;;;;;;;;;;4994766;28;20033;-53
2023/08/02 07:33:33;;;;;;;2.78;1.50;;;;;;;;;;4994527;28;20389;-54
2023/08/02 07:36:00;;;;;;;6.82;1.45;;;;;;;;;;4994472;28;20046;-52
2023/08/02 07:38:27;;;;;;;2.58;1.48;;;;;;;;;;4994474;28;20661;-55
2023/08/02 07:40:54;;;;;;;4.47;1.67;;;;;;;;;;4994476;28;20408;-53
2023/08/02 07:43:21;;;;;;;4.25;1.90;;;;;;;;;;4994557;28;20030;-54
2023/08/02 07:45:48;;;;;;;4.05;1.45;;;;;;;;;;4976810;28;20396;-54
2023/08/02 07:48:15;;;;;;;4.75;1.65;;;;;;;;;;4994356;28;20433;-53
2023/08/02 07:50:42;;;;;;;3.13;1.38;;;;;;;;;;4994501;28;20392;-55
2023/08/02 07:53:09;;;;;;;2.97;1.23;;;;;;;;;;4994402;28;20041;-53
2023/08/02 07:55:36;;;;;;;2.38;1.50;;;;;;;;;;4994268;28;20073;-52
2023/08/02 07:58:03;;;;;;;4.35;1.40;;;;;;;;;;4994289;28;20058;-53
2023/08/02 08:00:30;;;;;;;3.92;1.40;;;;;;;;;;4994175;28;20432;-56
2023/08/02 08:02:57;;;;;;;5.55;1.40;;;;;;;;;;4994135;28;20101;-54
2023/08/02 08:05:25;;;;;;;5.43;1.58;;;;;;;;;;4994056;28;20026;-55
2023/08/02 08:07:52;;;;;;;2.63;1.50;;;;;;;;;;4993830;28;20043;-52
2023/08/02 08:10:19;;;;;;;2.92;1.23;;;;;;;;;;4994068;28;20084;-52
2023/08/02 08:12:46;;;;;;;3.35;1.27;;;;;;;;;;4994022;28;20116;-52
2023/08/02 08:15:13;;;;;;;3.50;1.60;;;;;;;;;;4993696;28;20037;-55
2023/08/02 08:17:40;;;;;;;5.07;1.58;;;;;;;;;;4993881;28;20037;-51
2023/08/02 08:20:07;;;;;;;4.88;1.40;;;;;;;;;;4993860;28;20544;-54
2023/08/02 08:22:34;;;;;;;5.45;1.40;;;;;;;;;;4993690;28;20060;-52
2023/08/02 08:25:01;;;;;;;3.67;1.20;;;;;;;;;;4993698;28;20109;-52
2023/08/02 08:27:28;;;;;;;4.32;1.50;;;;;;;;;;4993652;28;20492;-53
2023/08/02 08:29:55;;;;;;;5.07;1.17;;;;;;;;;;4993603;28;20034;-52
2023/08/02 08:32:26;;;;;;;2.42;1.20;;;;;;;;;;4993411;28;20062;-51
2023/08/02 08:34:54;;;;;;;2.50;1.20;;;;;;;;;;4993595;28;20105;-55
2023/08/02 08:37:21;;;;;;;1.40;0.98;;;;;;;;;;4993395;28;20136;-51
2023/08/02 08:39:48;;;;;;;4.93;1.67;;;;;;;;;;4992973;28;20386;-55
2023/08/02 08:42:15;;;;;;;2.50;1.17;;;;;;;;;;4993385;28;20035;-52
2023/08/02 08:44:42;;;;;;;3.75;1.00;;;;;;;;;;4993288;28;20022;-56
2023/08/02 08:47:10;;;;;;;6.90;1.23;;;;;;;;;;4993312;28;20073;-52
2023/08/02 08:49:37;;;;;;;3.25;1.23;;;;;;;;;;4993288;28;20101;-51
2023/08/02 08:52:05;;;;;;;4.43;1.20;;;;;;;;;;4993236;28;20029;-55
2023/08/02 08:54:33;;;;;;;3.05;1.23;;;;;;;;;;4993091;28;20031;-52
2023/08/02 08:57:01;;;;;;;4.00;1.40;;;;;;;;;;4993131;28;20525;-53
2023/08/02 08:59:28;;;;;;;3.17;1.27;;;;;;;;;;4993093;28;20084;-56
2023/08/02 09:01:56;;;;;;;4.65;1.45;;;;;;;;;;4992524;28;20049;-52
2023/08/02 09:04:23;;;;;;;3.10;1.42;;;;;;;;;;4992943;28;20034;-51
2023/08/02 09:06:50;;;;;;;2.28;1.13;;;;;;;;;;4992952;28;20044;-54
2023/08/02 09:09:17;;;;;;;1.92;1.10;;;;;;;;;;4992790;28;20022;-52
2023/08/02 09:11:44;;;;;;;4.97;1.20;;;;;;;;;;4992952;28;20033;-55
2023/08/02 09:14:15;;;;;;;2.75;1.20;;;;;;;;;;4992798;28;20564;-53
2023/08/02 09:17:01;;;;;;;3.47;1.27;;;;;;;;;;4992605;28;20041;-55
2023/08/02 09:19:29;;;;;;;2.05;1.02;;;;;;;;;;4992779;28;20507;-54
2023/08/02 09:22:24;;;;;;;2.58;1.30;;;;;;;;;;4992766;28;20488;-55
2023/08/02 09:24:51;;;;;;;2.65;1.05;;;;;;;;;;4990463;28;20073;-54
2023/08/02 09:27:20;;;;;;;4.30;1.20;;;;;;;;;;4992467;28;20070;-53
2023/08/02 09:29:48;;;;;;;4.20;1.42;;;;;;;;;;4992448;28;20045;-55
2023/08/02 09:32:16;;;;;;;3.95;1.30;;;;;;;;;;4992533;28;20460;-55
2023/08/02 09:34:43;;;;;;;3.10;1.35;;;;;;;;;;4992489;28;20034;-50
2023/08/02 09:37:11;;;;;;;5.03;1.40;;;;;;;;;;4992111;28;20104;-50
2023/08/02 09:39:39;;;;;;;3.10;1.20;;;;;;;;;;4992265;28;20034;-50
2023/08/02 09:42:17;;;;;;;3.38;0.93;;;;;;;;;;4992226;28;20037;-53
2023/08/02 09:44:56;;;;;;;3.67;1.17;;;;;;;;;;4992049;28;20045;-52
2023/08/02 09:47:23;;;;;;;6.55;1.30;;;;;;;;;;4992327;28;20041;-51
2023/08/02 09:50:10;;;;;;;5.93;1.20;;;;;;;;;;4991567;28;20073;-53
2023/08/02 09:52:38;;;;;;;6.75;1.30;;;;;;;;;;4992164;28;20030;-51
2023/08/02 09:55:06;;;;;;;7.20;1.42;;;;;;;;;;4992174;28;20033;-52
2023/08/02 09:57:33;;;;;;;6.13;1.20;;;;;;;;;;4988156;28;20038;-49
2023/08/02 10:00:10;;;;;;;8.93;1.63;;;;;;;;;;4989174;28;20171;-50
2023/08/02 10:02:37;;;;;;;6.07;1.30;;;;;;;;;;4991881;28;20030;-51
2023/08/02 10:05:06;;;;;;;9.32;1.40;;;;;;;;;;4991770;28;20030;-53
2023/08/02 10:07:33;;;;;;;9.00;1.45;;;;;;;;;;4992114;28;20052;-55
2023/08/02 10:10:23;;;;;;;6.03;1.10;;;;;;;;;;4992207;28;20034;-51
2023/08/02 10:12:53;;;;;;;7.47;1.45;;;;;;;;;;4991815;28;20096;-54
2023/08/02 10:15:21;;;;;;;8.55;1.23;;;;;;;;;;4992049;28;20027;-51
2023/08/02 10:17:48;;;;;;;7.63;1.30;;;;;;;;;;4991942;28;20039;-49
2023/08/02 10:20:15;;;;;;;6.20;1.35;;;;;;;;;;4964861;28;20516;-48
2023/08/02 10:22:43;;;;;;;9.63;1.55;;;;;;;;;;4969258;28;20469;-50
2023/08/02 10:25:13;;;;;;;6.85;1.48;;;;;;;;;;4977048;28;20113;-49
2023/08/02 10:27:41;;;;;;;9.50;1.30;;;;;;;;;;4986458;28;20065;-54
2023/08/02 10:30:09;;;;;;;8.77;1.40;;;;;;;;;;4991060;28;20042;-47
2023/08/02 10:32:36;;;;;;;12.57;1.50;;;;;;;;;;4988180;28;20065;-52
2023/08/02 10:35:03;;;;;;;9.52;1.38;;;;;;;;;;4991741;28;20084;-51
2023/08/02 10:37:48;;;;;;;11.20;1.55;;;;;;;;;;4988595;28;20034;-57
2023/08/02 10:40:15;;;;;;;16.23;1.58;;;;;;;;;;4991287;28;20038;-54
2023/08/02 10:43:01;;;;;;;10.60;1.77;;;;;;;;;;4989034;28;20456;-55
2023/08/02 10:45:28;;;;;;;14.02;1.80;;;;;;;;;;4991639;28;20051;-50
2023/08/02 10:48:14;;;;;;;11.35;1.55;;;;;;;;;;4991540;28;20039;-60
2023/08/02 10:50:48;;;;;;;12.57;1.40;;;;;;;;;;4987089;28;20030;-62
2023/08/02 10:53:15;;;;;;;15.10;1.58;;;;;;;;;;4988069;28;20121;-61
2023/08/02 10:56:19;;;;;;;18.77;1.80;;;;;;;;;;4991487;28;20480;-61
2023/08/02 10:58:51;;;;;;;16.33;2.03;;;;;;;;;;4893558;29;20032;-64
2023/08/02 11:01:18;;;;;;;13.05;2.00;;;;;;;;;;4973444;28;20117;-67
2023/08/02 11:03:46;;;;;;;22.15;2.05;;;;;;;;;;4991776;28;20031;-64
2023/08/02 11:06:26;;;;;;;19.00;1.98;;;;;;;;;;4994644;28;20558;-63
2023/08/02 11:08:53;;;;;;;14.00;1.98;;;;;;;;;;4994985;28;20038;-67
2023/08/02 11:11:30;;;;;;;13.40;1.50;;;;;;;;;;4990830;28;20034;-64
2023/08/02 11:13:57;;;;;;;20.38;2.33;;;;;;;;;;4988996;28;20436;-52
2023/08/02 11:16:24;;;;;;;25.70;2.40;;;;;;;;;;4986263;28;20056;-57
2023/08/02 11:18:51;;;;;;;16.40;2.10;;;;;;;;;;4990344;28;20041;-56
2023/08/02 11:21:18;;;;;;;14.88;1.92;;;;;;;;;;4994740;28;20026;-53
2023/08/02 11:23:49;;;;;;;18.95;2.15;;;;;;;;;;4993334;28;20045;-52
2023/08/02 11:26:18;;;;;;;22.10;2.30;;;;;;;;;;4993134;28;20576;-61
2023/08/02 11:28:52;;;;;;;19.38;2.67;;;;;;;;;;4993130;28;20491;-60
2023/08/02 11:31:19;;;;;;;20.40;2.50;;;;;;;;;;4994091;28;20045;-59
2023/08/02 11:33:46;;;;;;;16.92;1.90;;;;;;;;;;4992242;28;20145;-57
2023/08/02 11:36:13;;;;;;;16.75;2.03;;;;;;;;;;4992841;28;20038;-52
2023/08/02 11:38:40;;;;;;;13.40;1.95;;;;;;;;;;4994314;28;20374;-52
2023/08/02 11:41:17;;;;;;;11.70;1.83;;;;;;;;;;4993814;28;20037;-51
2023/08/02 11:43:44;;;;;;;17.75;2.22;;;;;;;;;;4992183;28;20023;-52
2023/08/02 11:46:27;;;;;;;18.77;1.75;;;;;;;;;;4992434;28;20039;-57
2023/08/02 11:48:59;;;;;;;29.48;2.63;;;;;;;;;;4992591;28;20156;-54
2023/08/02 11:51:26;;;;;;;31.63;2.80;;;;;;;;;;4984210;28;20125;-54
2023/08/02 11:53:55;;;;;;;16.38;1.75;;;;;;;;;;4988546;28;20400;-56
2023/08/02 11:56:23;;;;;;;24.60;2.17;;;;;;;;;;4990575;28;20120;-57
2023/08/02 11:58:50;;;;;;;23.83;2.38;;;;;;;;;;4993325;28;20156;-53
2023/08/02 12:01:18;;;;;;;29.50;2.42;;;;;;;;;;4990989;28;20396;-55
2023/08/02 12:04:03;;;;;;;16.77;2.40;;;;;;;;;;4992972;28;20108;-57
2023/08/02 12:06:44;;;;;;;21.83;2.35;;;;;;;;;;4992382;28;20035;-59
2023/08/02 12:09:12;;;;;;;27.63;2.33;;;;;;;;;;4991663;28;20049;-55
2023/08/02 12:11:39;;;;;;;19.55;2.10;;;;;;;;;;4993012;28;20764;-56
2023/08/02 12:14:06;;;;;;;18.88;2.40;;;;;;;;;;4992984;28;20034;-54
2023/08/02 12:16:40;;;;;;;22.55;2.00;;;;;;;;;;4993808;28;20038;-54
2023/08/02 12:19:07;;;;;;;24.67;2.72;;;;;;;;;;4993933;28;20068;-55
2023/08/02 12:21:34;;;;;;;26.30;2.33;;;;;;;;;;4993691;28;20034;-54
2023/08/02 12:24:12;;;;;;;13.07;1.85;;;;;;;;;;4993526;28;20061;-54
2023/08/02 12:26:39;;;;;;;16.25;2.28;;;;;;;;;;4993651;28;20110;-53
2023/08/02 12:29:06;;;;;;;15.63;2.30;;;;;;;;;;4993667;28;20076;-54
2023/08/02 12:31:43;;;;;;;16.38;2.08;;;;;;;;;;4993607;28;20408;-55
2023/08/02 12:34:11;;;;;;;18.70;2.35;;;;;;;;;;4993505;28;20034;-53
2023/08/02 12:36:38;;;;;;;22.63;2.30;;;;;;;;;;4993539;28;20113;-54
2023/08/02 12:39:05;;;;;;;20.95;2.42;;;;;;;;;;4993484;28;20492;-55
2023/08/02 12:41:33;;;;;;;19.88;2.42;;;;;;;;;;4993525;28;20027;-55
2023/08/02 12:44:00;;;;;;;12.90;1.85;;;;;;;;;;4993281;28;20174;-55
2023/08/02 12:46:27;;;;;;;16.30;2.45;;;;;;;;;;4993342;28;20043;-56
2023/08/02 12:48:54;;;;;;;17.95;2.00;;;;;;;;;;4993224;28;20535;-57
2023/08/02 12:51:21;;;;;;;23.73;2.38;;;;;;;;;;4993380;28;20051;-54
2023/08/02 12:53:48;;;;;;;29.20;3.17;;;;;;;;;;4993193;28;20607;-56
2023/08/02 12:56:14;;;;;;;22.45;2.42;;;;;;;;;;4993243;28;20129;-54
2023/08/02 12:58:41;;;;;;;19.50;2.10;;;;;;;;;;4993104;28;20038;-52
2023/08/02 13:01:08;;;;;;;14.48;2.13;;;;;;;;;;4993103;28;20037;-52
2023/08/02 13:03:36;;;;;;;20.60;1.98;;;;;;;;;;4993003;28;20034;-56
2023/08/02 13:06:03;;;;;;;17.02;2.28;;;;;;;;;;4992975;28;20508;-53
2023/08/02 13:08:29;;;;;;;15.98;1.70;;;;;;;;;;4992922;28;20070;-55
2023/08/02 13:10:57;;;;;;;16.70;2.13;;;;;;;;;;4992776;28;20392;-56
2023/08/02 13:13:23;;;;;;;17.80;2.00;;;;;;;;;;4992786;28;20142;-54
2023/08/02 13:15:51;;;;;;;19.77;1.67;;;;;;;;;;4992882;28;20064;-53
2023/08/02 13:18:17;;;;;;;25.23;2.22;;;;;;;;;;4992849;28;20511;-56
2023/08/02 13:20:45;;;;;;;21.80;2.45;;;;;;;;;;4975068;28;20141;-54
2023/08/02 13:23:12;;;;;;;22.52;1.90;;;;;;;;;;4992702;28;20061;-57
2023/08/02 13:25:39;;;;;;;13.55;1.83;;;;;;;;;;4992675;28;20054;-56
2023/08/02 13:28:06;;;;;;;15.05;1.52;;;;;;;;;;4992624;28;20037;-55
2023/08/02 13:30:34;;;;;;;16.25;2.17;;;;;;;;;;4992499;28;20488;-55
2023/08/02 13:33:01;;;;;;;27.52;2.53;;;;;;;;;;4992346;28;20103;-55
2023/08/02 13:35:29;;;;;;;16.20;1.52;;;;;;;;;;4992488;28;20508;-56
2023/08/02 13:37:56;;;;;;;15.63;1.88;;;;;;;;;;4992622;28;20739;-55
2023/08/02 13:40:24;;;;;;;17.02;2.00;;;;;;;;;;4992433;28;20109;-55
2023/08/02 13:42:51;;;;;;;18.20;2.58;;;;;;;;;;4992323;28;20453;-57
2023/08/02 13:45:18;;;;;;;16.05;2.00;;;;;;;;;;4992320;28;20031;-53
2023/08/02 13:47:45;;;;;;;17.58;1.92;;;;;;;;;;4992366;28;20092;-54
2023/08/02 13:50:12;;;;;;;14.55;1.60;;;;;;;;;;4992167;28;20038;-52
2023/08/02 13:52:39;;;;;;;12.45;1.65;;;;;;;;;;4992388;28;20533;-53
2023/08/02 13:55:07;;;;;;;17.08;1.55;;;;;;;;;;4992190;28;20057;-54
2023/08/02 13:57:34;;;;;;;28.63;2.38;;;;;;;;;;4992191;28;20042;-56
2023/08/02 14:00:02;;;;;;;18.60;1.80;;;;;;;;;;4992263;28;20037;-57
2023/08/02 14:02:29;;;;;;;16.88;2.28;;;;;;;;;;4992101;28;20034;-56
2023/08/02 14:04:56;;;;;;;33.20;2.35;;;;;;;;;;4992135;28;20396;-57
2023/08/02 14:07:23;;;;;;;17.40;1.80;;;;;;;;;;4992104;28;20037;-56
2023/08/02 14:09:50;;;;;;;18.15;2.08;;;;;;;;;;4992222;28;20392;-57
2023/08/02 14:12:17;;;;;;;13.93;1.90;;;;;;;;;;4992174;28;20023;-56
2023/08/02 14:14:44;;;;;;;16.83;2.22;;;;;;;;;;4991983;28;20391;-57
2023/08/02 14:17:11;;;;;;;14.80;2.08;;;;;;;;;;4992133;28;20038;-55
2023/08/02 14:19:38;;;;;;;14.45;1.98;;;;;;;;;;4992362;28;20449;-53
2023/08/02 14:22:05;;;;;;;21.35;2.33;;;;;;;;;;4992048;28;20062;-53
2023/08/02 14:24:32;;;;;;;17.48;1.85;;;;;;;;;;4992007;28;20030;-54
2023/08/02 14:27:00;;;;;;;30.33;2.60;;;;;;;;;;4991898;28;20144;-57
2023/08/02 14:29:27;;;;;;;14.32;1.60;;;;;;;;;;4991990;28;20031;-57
2023/08/02 14:31:53;;;;;;;14.80;1.90;;;;;;;;;;4991841;28;20030;-56
2023/08/02 14:34:23;;;;;;;18.08;2.17;;;;;;;;;;4991840;28;20481;-54
2023/08/02 14:36:50;;;;;;;16.27;2.10;;;;;;;;;;4993602;28;20088;-57
2023/08/02 14:39:17;;;;;;;21.42;2.10;;;;;;;;;;4995783;28;20034;-55
2023/08/02 14:41:44;;;;;;;25.65;1.90;;;;;;;;;;4995653;28;20496;-55